Ulqini, Mali i Zi

06:22 AM CEST on tetor 20, 2014 (GMT +0200)
Rinas | Change Station
CLOSE
Current Station
Airport
Location: Tirana,
Elevation: 125 ft
Nearby Weather Stations

Elev 125 ft 41.42 °N, 19.72 °E | Updated 1 hour ago

Clear
i kthjellet
52 °F
Feels Like 52 °F
N
2
Era e paqendrueshme Era from JL

Sot
High -- | Low -- °F
--% Chance of Precip.
Yesterday
High -- | Low -- °F
Precip. -- ne
7:00 AM 5:54 PM
Waning Crescent, 13% visible
Presioni 30.21 ne
Visioni -9999.0 milje
Clouds
Pika E Veses 48 °F
Lageshtira E ajrit 88%
Rainfall 0.00 ne
Snow Depth Not available.
UV Not available.
Pollen Not available.
Air Quality Not available.
Flu Activity Not available.
METAR LATI 200320Z 14002KT CAVOK 11/09 Q1023 NOSIG

More Conditions Fewer Conditions

Presioni 30.21 ne
Visioni -9999.0 milje
Clouds
Pika E Veses 48 °F
Lageshtira E ajrit 88%
Rainfall 0.00 ne
Snow Depth Not available.
UV Not available.
Pollen Not available.
Air Quality Not available.
Flu Activity Not available.
METAR LATI 200320Z 14002KT CAVOK 11/09 Q1023 NOSIG

More Conditions Fewer Conditions

10-Day Weather Forecast

Almanac

Astronomy

Oct. 20, 2014 Rise Set
Actual Time 7:00 AM CEST 5:54 PM CEST
Civil Twilight 6:32 AM CEST 6:22 PM CEST
Nautical Twilight 6:00 AM CEST 6:54 PM CEST
Astronomical Twilight 5:27 AM CEST 7:27 PM CEST
Moon 3:29 AM CEST 4:10 PM CEST
Length Of Visible Light 11h 49m
Length of Day
10h 53m
Tomorrow will be 2m 40s shorter.
Waning Crescent, 13% of the Moon is Illuminated
Sot
Waning Crescent
Oct 23
New
Oct 30
First Quarter
Nov 6
Full
Nov 14
Last Quarter

Community

WunderPhotos

Upload Photos

1,763,294 photos uploaded!

Nearby

Snow Depth

Not available.

Earthquake Activity

City Distance Mag. Time & Date
No recent earthquake activity has been reported nearby.
Minimum magnitude displayed is 2.5.

Coastal Water Temperatures

Vend Temperatura
No Stations Reporting

Nearby Weather Stations